createdAt,value
2022-12-27T06:17:28.686Z,25.08
2022-12-27T06:27:28.526Z,24.24
2022-12-27T06:37:28.535Z,23.96
2022-12-27T06:47:28.534Z,22.12
2022-12-27T06:57:28.569Z,22.18
2022-12-27T07:07:28.584Z,23.47
2022-12-27T07:17:28.570Z,22.03
2022-12-27T07:27:28.647Z,23.59
2022-12-27T07:37:28.664Z,23.46
2022-12-27T07:47:28.759Z,25.11
2022-12-27T07:57:28.674Z,21.36
2022-12-27T08:07:28.587Z,19.17
2022-12-27T08:17:28.733Z,17.13
2022-12-27T08:27:28.568Z,21.63
2022-12-27T08:37:28.692Z,18.87
2022-12-27T08:47:28.868Z,18.76
2022-12-27T08:57:28.988Z,19.33
2022-12-27T09:07:29.033Z,19.95
2022-12-27T09:17:28.966Z,18.45
2022-12-27T09:27:29.059Z,18.75
2022-12-27T09:37:29.145Z,21.38
2022-12-27T09:47:29.020Z,20.59
2022-12-27T09:57:28.974Z,20.17
2022-12-27T10:07:29.016Z,24.89
2022-12-27T10:17:28.978Z,26.82
2022-12-27T10:27:28.984Z,20.41
2022-12-27T10:37:29.041Z,20.88
2022-12-27T10:47:29.001Z,18.07
2022-12-27T10:57:29.036Z,21.45
2022-12-27T11:07:29.000Z,17.72
2022-12-27T11:17:28.931Z,23.29
2022-12-27T11:27:28.935Z,21.07
2022-12-27T11:37:28.948Z,18.68
2022-12-27T11:47:28.930Z,15.33
2022-12-27T11:57:29.941Z,16.56
2022-12-27T12:07:28.976Z,18.92
2022-12-27T12:17:35.596Z,19.10
2022-12-27T12:27:28.971Z,17.38
2022-12-27T12:37:29.067Z,14.86
2022-12-27T12:47:28.999Z,16.25
2022-12-27T12:57:29.006Z,19.66
2022-12-27T13:07:30.331Z,19.49
2022-12-27T13:17:29.037Z,20.41
2022-12-27T13:27:28.988Z,16.57
2022-12-27T13:37:29.078Z,15.78
2022-12-27T13:47:29.055Z,18.18
2022-12-27T13:57:29.224Z,16.85
2022-12-27T14:07:29.037Z,16.52
2022-12-27T14:17:29.193Z,15.02
2022-12-27T14:27:29.230Z,14.84
2022-12-27T14:37:29.073Z,14.19
2022-12-27T14:47:29.173Z,14.53
2022-12-27T14:57:33.448Z,10.17
2022-12-27T15:07:29.049Z,8.32
2022-12-27T15:17:29.128Z,7.57
2022-12-27T15:27:29.053Z,7.51
2022-12-27T15:37:29.122Z,7.49
2022-12-27T15:47:29.102Z,7.34
2022-12-27T15:57:29.174Z,7.47
2022-12-27T16:07:29.197Z,7.44
2022-12-27T16:17:29.217Z,7.45
2022-12-27T16:27:29.129Z,7.60
2022-12-27T16:37:29.152Z,8.38
2022-12-27T16:47:29.168Z,8.25
2022-12-27T16:57:29.082Z,10.10
2022-12-27T17:07:29.100Z,11.02
2022-12-27T17:17:29.314Z,8.93
2022-12-27T17:27:29.103Z,10.25
2022-12-27T17:37:29.329Z,9.37
2022-12-27T17:47:29.125Z,8.49
2022-12-27T17:57:29.139Z,8.88
2022-12-27T18:07:29.184Z,7.86
2022-12-27T18:17:29.532Z,8.92
2022-12-27T18:27:29.359Z,10.06
2022-12-27T18:37:29.472Z,8.85
2022-12-27T18:47:29.456Z,9.47
2022-12-27T18:57:29.803Z,10.78
2022-12-27T19:07:29.768Z,12.63
2022-12-27T19:17:29.758Z,12.05
